createdAt,value
2022-07-27T00:01:51.318Z,61.60
2022-07-27T00:04:19.928Z,61.50
2022-07-27T00:06:48.043Z,60.70
2022-07-27T00:09:15.273Z,59.90
2022-07-27T00:11:42.334Z,61.10
2022-07-27T00:14:09.091Z,60.70
2022-07-27T00:16:35.979Z,60.90
2022-07-27T00:19:02.910Z,59.80
2022-07-27T00:21:29.738Z,60.70
2022-07-27T00:23:56.569Z,60.30
2022-07-27T00:26:23.318Z,59.70
2022-07-27T00:28:50.421Z,61.00
2022-07-27T00:31:18.031Z,62.00
2022-07-27T00:33:45.103Z,60.90
2022-07-27T00:36:12.493Z,61.50
2022-07-27T00:38:39.358Z,61.70
2022-07-27T00:41:06.181Z,61.60
2022-07-27T00:43:33.896Z,62.50
2022-07-27T00:46:04.753Z,63.10
2022-07-27T00:48:32.181Z,62.90
2022-07-27T00:50:59.520Z,62.50
2022-07-27T00:53:26.534Z,62.90
2022-07-27T00:55:53.317Z,62.70
2022-07-27T00:58:20.036Z,61.80
2022-07-27T01:00:46.916Z,61.90
2022-07-27T01:03:16.326Z,60.70
2022-07-27T01:05:43.943Z,60.30
2022-07-27T01:08:13.693Z,59.90
2022-07-27T01:10:42.145Z,59.50
2022-07-27T01:13:12.617Z,60.10
2022-07-27T01:15:40.847Z,60.00
2022-07-27T01:18:29.653Z,60.70
2022-07-27T01:20:57.215Z,60.80
2022-07-27T01:23:24.978Z,60.20
2022-07-27T01:25:51.878Z,61.10
2022-07-27T01:28:18.683Z,62.10
2022-07-27T01:30:45.461Z,62.00
2022-07-27T01:33:12.264Z,60.80
2022-07-27T01:35:39.822Z,61.30
2022-07-27T01:38:09.828Z,61.10
2022-07-27T01:40:37.825Z,60.20
2022-07-27T01:43:05.410Z,60.50
2022-07-27T01:45:32.405Z,59.90
2022-07-27T01:47:59.212Z,59.70
2022-07-27T01:50:25.947Z,59.50
2022-07-27T01:52:52.720Z,59.50
2022-07-27T01:55:19.679Z,59.20
2022-07-27T01:57:46.456Z,59.50
2022-07-27T02:00:13.712Z,59.90
2022-07-27T02:02:40.809Z,60.40
2022-07-27T02:05:11.934Z,61.80
2022-07-27T02:07:40.386Z,61.20
2022-07-27T02:10:07.859Z,60.20
2022-07-27T02:12:37.607Z,59.90
2022-07-27T02:15:14.799Z,59.40
2022-07-27T02:17:43.770Z,59.40
2022-07-27T02:20:12.819Z,59.70
2022-07-27T02:22:39.564Z,59.60
2022-07-27T02:25:07.327Z,60.40
2022-07-27T02:27:34.155Z,61.70
2022-07-27T02:30:01.334Z,62.50
2022-07-27T02:32:28.211Z,61.70
2022-07-27T02:34:55.034Z,61.60
2022-07-27T02:37:21.879Z,61.00
2022-07-27T02:39:48.971Z,60.80
2022-07-27T02:42:15.697Z,59.90
2022-07-27T02:44:42.433Z,61.00
2022-07-27T02:47:09.193Z,61.40
2022-07-27T02:49:36.014Z,61.70
2022-07-27T02:52:03.289Z,61.30
2022-07-27T02:54:32.440Z,60.90
2022-07-27T02:57:02.621Z,60.80
2022-07-27T02:59:29.522Z,61.00
2022-07-27T03:01:56.413Z,60.90
2022-07-27T03:04:23.591Z,60.60
2022-07-27T03:06:50.358Z,59.90
2022-07-27T03:09:17.109Z,60.10
2022-07-27T03:11:43.881Z,60.70
2022-07-27T03:14:10.698Z,59.90
2022-07-27T03:16:37.409Z,59.60
2022-07-27T03:19:04.729Z,59.70
2022-07-27T03:21:31.635Z,59.90
2022-07-27T03:23:58.413Z,59.30
2022-07-27T03:26:25.277Z,59.20
2022-07-27T03:28:52.022Z,59.10
2022-07-27T03:31:18.828Z,59.10
2022-07-27T03:33:45.608Z,58.90
2022-07-27T03:36:12.354Z,59.00
2022-07-27T03:38:39.110Z,59.50
2022-07-27T03:41:06.855Z,60.10
2022-07-27T03:43:34.903Z,60.90
2022-07-27T03:46:01.726Z,61.70
2022-07-27T03:48:29.308Z,61.10
2022-07-27T03:50:56.101Z,61.50
2022-07-27T03:53:23.095Z,61.10
2022-07-27T03:55:50.925Z,61.10
2022-07-27T03:58:18.084Z,60.80
2022-07-27T04:00:45.486Z,61.10
2022-07-27T04:03:12.298Z,61.90
2022-07-27T04:05:39.072Z,62.70
2022-07-27T04:08:06.109Z,62.40
2022-07-27T04:10:33.059Z,62.10
2022-07-27T04:12:59.904Z,62.50
2022-07-27T04:15:26.938Z,61.80
2022-07-27T04:17:57.030Z,61.40
2022-07-27T04:20:25.122Z,60.50
2022-07-27T04:22:51.972Z,60.20
2022-07-27T04:25:18.817Z,60.90
2022-07-27T04:27:45.713Z,61.30
2022-07-27T04:30:12.878Z,62.70
2022-07-27T04:32:40.067Z,62.10
2022-07-27T04:35:08.320Z,62.90
2022-07-27T04:37:35.354Z,62.30
2022-07-27T04:40:02.312Z,62.70
2022-07-27T04:42:30.027Z,62.00
2022-07-27T04:44:57.355Z,62.70
2022-07-27T04:47:24.161Z,62.40
2022-07-27T04:49:51.042Z,62.90
2022-07-27T04:52:18.475Z,63.70
2022-07-27T04:54:45.656Z,64.00
2022-07-27T04:57:12.527Z,63.80
2022-07-27T04:59:39.234Z,63.10
2022-07-27T05:02:05.972Z,64.50
2022-07-27T05:04:32.753Z,65.00
2022-07-27T05:06:59.634Z,65.40
2022-07-27T05:09:26.356Z,65.70
2022-07-27T05:11:53.163Z,64.70
2022-07-27T05:14:21.622Z,65.40
2022-07-27T05:16:49.458Z,65.20
2022-07-27T05:19:16.349Z,64.90
2022-07-27T05:21:43.365Z,65.30
2022-07-27T05:24:10.359Z,65.20
2022-07-27T05:26:38.047Z,64.70
2022-07-27T05:29:04.862Z,64.50
2022-07-27T05:31:31.618Z,64.40
2022-07-27T05:33:58.817Z,64.60
2022-07-27T05:36:26.144Z,64.10
2022-07-27T05:38:52.986Z,63.60
2022-07-27T05:41:24.704Z,63.10
2022-07-27T05:43:52.464Z,63.30
2022-07-27T05:46:19.315Z,63.80
2022-07-27T05:48:46.184Z,63.60
2022-07-27T05:51:12.996Z,63.40
2022-07-27T05:53:39.710Z,63.10
2022-07-27T05:56:08.078Z,63.10
2022-07-27T05:58:35.016Z,62.70
2022-07-27T06:01:02.202Z,63.50
2022-07-27T06:03:28.977Z,63.80
2022-07-27T06:06:15.745Z,64.30
2022-07-27T06:08:42.495Z,63.60
2022-07-27T06:11:09.308Z,63.70
2022-07-27T06:13:36.729Z,63.30
2022-07-27T06:16:04.053Z,63.30
2022-07-27T06:18:30.819Z,63.40
2022-07-27T06:20:57.896Z,63.20
2022-07-27T06:23:24.700Z,62.70
2022-07-27T06:25:51.437Z,62.90
2022-07-27T06:28:19.193Z,62.70
2022-07-27T06:30:47.051Z,62.20
2022-07-27T06:33:14.552Z,62.60
2022-07-27T06:35:41.657Z,61.90
2022-07-27T06:38:09.146Z,61.60
2022-07-27T06:40:36.084Z,61.30
2022-07-27T06:43:02.972Z,61.10
2022-07-27T06:45:29.727Z,61.90
2022-07-27T06:47:56.428Z,61.60
2022-07-27T06:50:23.383Z,61.20
2022-07-27T06:52:50.410Z,61.00
2022-07-27T06:55:17.703Z,61.20
2022-07-27T06:57:46.162Z,61.00
2022-07-27T07:00:13.493Z,60.80
2022-07-27T07:02:51.827Z,61.00
2022-07-27T07:05:18.618Z,60.50
2022-07-27T07:07:45.322Z,60.60
2022-07-27T07:10:13.275Z,60.20
2022-07-27T07:12:39.939Z,60.00
2022-07-27T07:15:07.940Z,60.00
2022-07-27T07:17:34.608Z,60.10
2022-07-27T07:20:01.767Z,59.90
2022-07-27T07:22:28.456Z,59.90
2022-07-27T07:24:59.330Z,59.40
2022-07-27T07:27:29.179Z,59.40
2022-07-27T07:29:56.076Z,59.30
2022-07-27T07:32:27.735Z,59.00
2022-07-27T07:34:56.193Z,58.60
2022-07-27T07:37:22.864Z,58.50
2022-07-27T07:40:08.243Z,58.30
2022-07-27T07:42:49.834Z,57.70
2022-07-27T07:45:16.602Z,57.80
2022-07-27T07:47:43.347Z,57.70
2022-07-27T07:50:10.333Z,57.40
2022-07-27T07:52:37.355Z,57.30
2022-07-27T07:55:04.803Z,56.70
2022-07-27T07:57:31.457Z,56.20
2022-07-27T07:59:58.189Z,56.10
2022-07-27T08:02:24.908Z,56.00
2022-07-27T08:04:54.298Z,55.70
2022-07-27T08:07:20.990Z,55.50
2022-07-27T08:09:47.645Z,55.90
2022-07-27T08:12:14.406Z,55.40
2022-07-27T08:14:41.093Z,55.30
2022-07-27T08:17:07.799Z,54.80
2022-07-27T08:19:39.899Z,54.60
2022-07-27T08:22:07.005Z,54.50
2022-07-27T08:24:33.757Z,54.60
2022-07-27T08:27:01.036Z,53.10
2022-07-27T08:29:34.182Z,53.60
2022-07-27T08:32:03.928Z,54.30
2022-07-27T08:34:33.105Z,53.70
2022-07-27T08:36:59.795Z,53.70
2022-07-27T08:40:27.852Z,53.80
2022-07-27T08:42:13.114Z,53.80
2022-07-27T08:44:41.171Z,53.40
2022-07-27T08:47:11.076Z,54.20
2022-07-27T08:49:43.602Z,53.60
2022-07-27T08:52:12.370Z,52.60
2022-07-27T08:54:41.257Z,53.40
2022-07-27T08:57:11.335Z,54.80
2022-07-27T08:59:38.246Z,53.90
2022-07-27T09:02:10.620Z,53.00
2022-07-27T09:04:40.449Z,51.10
2022-07-27T09:07:07.178Z,50.80
2022-07-27T09:09:45.874Z,51.00
2022-07-27T09:12:12.742Z,50.50
2022-07-27T09:14:41.523Z,50.30
2022-07-27T09:17:47.903Z,50.30
2022-07-27T09:20:19.037Z,51.00
2022-07-27T09:22:52.345Z,52.30
2022-07-27T09:25:44.845Z,52.20
2022-07-27T09:28:10.106Z,49.60
2022-07-27T09:30:43.510Z,49.70
2022-07-27T09:33:10.570Z,48.70
2022-07-27T09:35:37.828Z,48.80
2022-07-27T09:38:21.246Z,48.30
2022-07-27T09:40:57.913Z,49.40
2022-07-27T09:44:28.608Z,48.00
2022-07-27T09:46:12.106Z,47.30
2022-07-27T09:48:39.139Z,46.50
2022-07-27T09:51:55.823Z,46.10
2022-07-27T09:53:58.824Z,46.30
2022-07-27T09:56:30.826Z,49.70
2022-07-27T09:59:01.466Z,49.00
2022-07-27T10:01:32.998Z,49.10
2022-07-27T10:04:00.754Z,47.00
2022-07-27T10:06:28.961Z,46.50
2022-07-27T10:08:57.402Z,46.50
2022-07-27T10:11:24.993Z,45.00
2022-07-27T10:13:53.491Z,44.70
2022-07-27T10:16:26.055Z,44.00
2022-07-27T10:19:07.997Z,44.10
2022-07-27T10:21:38.242Z,44.30
2022-07-27T10:24:12.435Z,44.70
2022-07-27T10:26:41.528Z,45.80
2022-07-27T10:29:14.188Z,43.40
2022-07-27T10:31:58.003Z,45.90
2022-07-27T10:34:42.372Z,42.60
2022-07-27T10:37:15.956Z,41.70
2022-07-27T10:39:50.990Z,43.50
2022-07-27T10:42:22.001Z,43.90
2022-07-27T10:45:08.222Z,41.90
2022-07-27T10:47:40.908Z,42.70
2022-07-27T10:50:16.730Z,44.40
2022-07-27T10:52:47.495Z,44.40
2022-07-27T10:55:32.590Z,43.50
2022-07-27T10:58:22.156Z,42.20
2022-07-27T11:00:58.312Z,40.00
2022-07-27T11:03:32.994Z,39.60
2022-07-27T11:11:49.927Z,39.30
2022-07-27T11:14:19.343Z,39.40
2022-07-27T11:17:12.408Z,38.30
2022-07-27T11:19:45.010Z,39.80
2022-07-27T11:22:28.259Z,41.30
2022-07-27T11:24:55.644Z,40.90
2022-07-27T11:27:25.376Z,41.10
2022-07-27T11:29:52.259Z,39.90
2022-07-27T11:32:20.331Z,39.40
2022-07-27T11:34:47.571Z,38.50
2022-07-27T11:37:19.508Z,39.20
2022-07-27T11:40:04.132Z,39.50
2022-07-27T11:42:45.999Z,38.20
2022-07-27T11:45:13.266Z,37.80
2022-07-27T11:47:39.991Z,38.80
2022-07-27T11:50:08.460Z,38.40
2022-07-27T11:52:42.516Z,37.70
2022-07-27T11:55:09.432Z,37.50
2022-07-27T11:57:40.288Z,36.70
2022-07-27T12:00:07.836Z,37.80
2022-07-27T12:02:34.577Z,37.10
2022-07-27T12:05:03.203Z,35.90
2022-07-27T12:07:32.115Z,37.90
2022-07-27T12:10:02.027Z,36.60
2022-07-27T12:12:31.505Z,37.20
2022-07-27T12:15:11.782Z,36.00
2022-07-27T12:17:56.978Z,36.10
2022-07-27T12:20:32.843Z,34.30
2022-07-27T12:23:07.798Z,34.70
2022-07-27T12:25:35.278Z,34.00
2022-07-27T12:28:15.117Z,34.80
2022-07-27T12:30:45.056Z,34.00
2022-07-27T12:33:36.948Z,34.20
2022-07-27T12:36:06.181Z,34.80
2022-07-27T12:38:44.672Z,34.80
2022-07-27T12:41:23.076Z,36.40
2022-07-27T12:44:06.065Z,35.10
2022-07-27T12:46:32.870Z,33.30
2022-07-27T12:48:59.739Z,34.80
2022-07-27T12:51:26.787Z,36.70
2022-07-27T12:53:53.620Z,36.80
2022-07-27T12:56:26.856Z,34.30
2022-07-27T12:58:58.964Z,34.80
2022-07-27T13:01:25.632Z,34.20
2022-07-27T13:03:52.378Z,32.80
2022-07-27T13:06:19.157Z,34.40
2022-07-27T13:08:45.927Z,34.10
2022-07-27T13:11:13.821Z,33.90
2022-07-27T13:13:40.746Z,33.50
2022-07-27T13:16:07.645Z,32.80
2022-07-27T13:18:34.398Z,33.10
2022-07-27T13:21:01.579Z,33.20
2022-07-27T13:23:29.469Z,32.40
2022-07-27T13:25:56.210Z,33.30
2022-07-27T13:28:23.020Z,33.00
2022-07-27T13:30:49.798Z,34.50
2022-07-27T13:33:16.509Z,32.40
2022-07-27T13:35:43.236Z,33.10
2022-07-27T13:38:14.490Z,33.70
2022-07-27T13:40:44.985Z,32.90
2022-07-27T13:43:12.251Z,32.60
2022-07-27T13:45:43.341Z,33.30
2022-07-27T13:48:11.861Z,32.20
2022-07-27T13:50:39.839Z,35.40
2022-07-27T13:53:06.538Z,35.10
2022-07-27T13:55:34.413Z,35.60
2022-07-27T13:58:01.123Z,34.60
2022-07-27T14:00:28.003Z,35.80
2022-07-27T14:02:54.803Z,35.00
2022-07-27T14:05:21.538Z,35.20
2022-07-27T14:07:48.466Z,31.40
2022-07-27T14:10:39.552Z,32.20
2022-07-27T14:13:09.414Z,31.30
2022-07-27T14:15:54.432Z,31.60
2022-07-27T14:18:27.469Z,31.90
2022-07-27T14:20:59.211Z,32.50
2022-07-27T14:23:26.969Z,31.40
2022-07-27T14:25:55.059Z,32.30
2022-07-27T14:28:22.580Z,31.90
2022-07-27T14:30:49.434Z,32.30
2022-07-27T14:33:16.453Z,33.00
2022-07-27T14:35:43.500Z,32.50
2022-07-27T14:38:11.271Z,34.20
2022-07-27T14:40:39.069Z,35.40
2022-07-27T14:43:06.589Z,33.20
2022-07-27T14:45:44.922Z,34.40
2022-07-27T14:48:25.102Z,34.00
2022-07-27T14:50:59.745Z,33.60
2022-07-27T14:53:26.485Z,34.00
2022-07-27T14:55:53.278Z,33.30
2022-07-27T14:58:20.033Z,32.60
2022-07-27T15:00:46.927Z,29.90
2022-07-27T15:03:14.831Z,29.80
2022-07-27T15:05:49.606Z,30.50
2022-07-27T15:08:21.024Z,30.90
2022-07-27T15:10:48.586Z,31.00
2022-07-27T15:13:15.963Z,30.10
2022-07-27T15:15:42.875Z,30.50
2022-07-27T15:18:09.922Z,30.90
2022-07-27T15:20:36.665Z,30.90
2022-07-27T15:23:04.037Z,31.20
2022-07-27T15:25:30.820Z,30.90
2022-07-27T15:27:57.606Z,31.00
2022-07-27T15:30:24.400Z,30.50
2022-07-27T15:32:51.114Z,31.30
2022-07-27T15:35:17.831Z,32.00
2022-07-27T15:37:53.187Z,33.10
2022-07-27T15:40:37.139Z,34.30
2022-07-27T15:43:11.046Z,33.50
2022-07-27T15:45:45.661Z,33.20
2022-07-27T15:48:13.548Z,33.20
2022-07-27T15:50:42.531Z,33.10
2022-07-27T15:53:09.931Z,33.10
2022-07-27T15:55:37.571Z,32.90
2022-07-27T15:58:06.084Z,32.90
2022-07-27T16:00:38.670Z,32.50
2022-07-27T16:03:06.580Z,31.90
2022-07-27T16:05:37.507Z,32.20
2022-07-27T16:08:05.347Z,32.50
2022-07-27T16:10:32.173Z,32.30
2022-07-27T16:13:00.656Z,32.40
2022-07-27T16:15:46.285Z,32.40
2022-07-27T16:18:13.094Z,32.70
2022-07-27T16:20:39.895Z,32.90
2022-07-27T16:23:19.071Z,33.00
2022-07-27T16:26:10.286Z,33.50
2022-07-27T16:28:40.099Z,33.50
2022-07-27T16:31:08.725Z,33.70
2022-07-27T16:33:35.733Z,33.20
2022-07-27T16:36:02.711Z,33.10
2022-07-27T16:38:29.496Z,33.20
2022-07-27T16:40:56.207Z,33.80
2022-07-27T16:43:23.126Z,33.90
2022-07-27T16:46:04.814Z,34.00
2022-07-27T16:48:38.316Z,34.20
2022-07-27T16:51:11.869Z,34.50
2022-07-27T16:53:40.448Z,32.70
2022-07-27T16:56:07.243Z,32.00
2022-07-27T16:58:34.318Z,33.10
2022-07-27T17:01:01.411Z,33.50
2022-07-27T17:03:28.177Z,32.90
2022-07-27T17:05:54.936Z,33.50
2022-07-27T17:08:27.788Z,33.70
2022-07-27T17:10:55.439Z,33.80
2022-07-27T17:13:22.157Z,33.40
2022-07-27T17:16:00.763Z,33.90
2022-07-27T17:18:27.922Z,34.20
2022-07-27T17:20:54.670Z,33.10
2022-07-27T17:23:21.428Z,32.80
2022-07-27T17:25:48.257Z,33.30
2022-07-27T17:28:15.090Z,33.40
2022-07-27T17:30:41.827Z,33.60
2022-07-27T17:33:08.570Z,33.50
2022-07-27T17:35:35.341Z,32.70
2022-07-27T17:38:06.918Z,33.00
2022-07-27T17:40:34.815Z,32.70
2022-07-27T17:43:01.913Z,31.80
2022-07-27T17:45:28.797Z,31.60
2022-07-27T17:47:55.467Z,32.40
2022-07-27T17:50:22.557Z,32.90
2022-07-27T17:52:49.488Z,32.70
2022-07-27T17:55:16.252Z,32.80
2022-07-27T17:57:44.835Z,32.80
2022-07-27T18:00:12.059Z,32.80
2022-07-27T18:02:38.731Z,33.00
2022-07-27T18:05:05.975Z,32.50
2022-07-27T18:07:39.279Z,32.30
2022-07-27T18:10:08.344Z,32.30
2022-07-27T18:12:35.702Z,32.30
2022-07-27T18:15:21.649Z,32.30
2022-07-27T18:17:48.367Z,32.50
2022-07-27T18:20:15.075Z,32.50
2022-07-27T18:22:42.491Z,33.40
2022-07-27T18:25:09.688Z,32.40
2022-07-27T18:27:37.152Z,32.30
2022-07-27T18:30:05.905Z,32.50
2022-07-27T18:32:33.448Z,32.30
2022-07-27T18:35:01.483Z,31.90
2022-07-27T18:37:28.305Z,32.30
2022-07-27T18:39:55.021Z,32.40
2022-07-27T18:42:21.881Z,32.40
2022-07-27T18:44:48.554Z,32.80
2022-07-27T18:47:15.321Z,32.90
2022-07-27T18:49:42.149Z,33.10
2022-07-27T18:52:09.000Z,33.40
2022-07-27T18:54:35.803Z,33.50
2022-07-27T18:57:02.567Z,33.50
2022-07-27T18:59:30.055Z,33.50
2022-07-27T19:01:56.974Z,33.70
2022-07-27T19:04:24.661Z,33.80
2022-07-27T19:06:52.653Z,33.90
2022-07-27T19:09:19.395Z,34.00
2022-07-27T19:11:46.180Z,34.10
2022-07-27T19:14:12.990Z,34.30
2022-07-27T19:16:39.943Z,34.40
2022-07-27T19:19:11.620Z,34.50
2022-07-27T19:21:41.226Z,34.70
2022-07-27T19:24:08.068Z,34.80
2022-07-27T19:26:34.953Z,34.90
2022-07-27T19:29:01.669Z,35.00
2022-07-27T19:31:28.459Z,35.10
2022-07-27T19:33:56.073Z,35.30
2022-07-27T19:36:23.211Z,35.50
2022-07-27T19:38:50.813Z,35.70
2022-07-27T19:41:17.873Z,35.80
2022-07-27T19:43:44.814Z,35.90
2022-07-27T19:46:11.743Z,36.10
2022-07-27T19:48:38.862Z,36.20
2022-07-27T19:51:07.213Z,36.20
2022-07-27T19:53:35.573Z,36.30
2022-07-27T19:56:02.727Z,36.50
2022-07-27T19:58:29.683Z,36.70
2022-07-27T20:00:56.577Z,36.90
2022-07-27T20:03:23.857Z,37.20
2022-07-27T20:05:51.070Z,37.40
2022-07-27T20:08:17.952Z,37.60
2022-07-27T20:10:44.771Z,37.70
2022-07-27T20:13:14.377Z,37.80
2022-07-27T20:15:41.094Z,38.00
2022-07-27T20:18:08.089Z,38.10
2022-07-27T20:20:35.202Z,38.10
2022-07-27T20:23:01.954Z,38.20
2022-07-27T20:25:28.619Z,38.30
2022-07-27T20:27:55.342Z,38.30
2022-07-27T20:30:22.212Z,38.50
2022-07-27T20:32:49.909Z,38.60
2022-07-27T20:35:17.140Z,39.20
2022-07-27T20:37:45.343Z,39.20
2022-07-27T20:40:12.742Z,38.80
2022-07-27T20:42:41.456Z,38.90
2022-07-27T20:45:10.165Z,39.00
2022-07-27T20:47:38.317Z,39.00
2022-07-27T20:50:11.368Z,39.30
2022-07-27T20:52:38.979Z,39.30
2022-07-27T20:55:07.368Z,39.50
2022-07-27T20:57:34.473Z,39.80
2022-07-27T21:00:01.692Z,39.90
2022-07-27T21:02:28.420Z,40.00
2022-07-27T21:04:55.226Z,40.20
2022-07-27T21:07:21.935Z,40.10
2022-07-27T21:09:48.868Z,40.40
2022-07-27T21:12:15.745Z,40.50
2022-07-27T21:14:43.071Z,40.50
2022-07-27T21:17:09.752Z,40.70
2022-07-27T21:19:36.656Z,40.80
2022-07-27T21:22:03.357Z,41.40
2022-07-27T21:24:30.233Z,41.60
2022-07-27T21:27:00.929Z,41.90
2022-07-27T21:29:31.801Z,42.20
2022-07-27T21:31:58.796Z,42.50
2022-07-27T21:34:25.607Z,43.30
2022-07-27T21:36:52.307Z,42.60
2022-07-27T21:39:19.980Z,42.50
2022-07-27T21:41:46.834Z,43.40
2022-07-27T21:44:13.830Z,43.80
2022-07-27T21:46:41.007Z,44.90
2022-07-27T21:49:08.058Z,44.30
2022-07-27T21:51:34.953Z,45.30
2022-07-27T21:54:01.916Z,45.80
2022-07-27T21:56:28.752Z,45.40
2022-07-27T21:58:55.627Z,46.10
2022-07-27T22:01:22.595Z,46.50
2022-07-27T22:03:49.431Z,47.30
2022-07-27T22:06:16.837Z,46.80
2022-07-27T22:08:44.096Z,47.30
2022-07-27T22:11:10.774Z,47.00
2022-07-27T22:13:37.551Z,46.60
2022-07-27T22:16:04.947Z,46.90
2022-07-27T22:18:32.057Z,46.40
2022-07-27T22:20:58.918Z,45.70
2022-07-27T22:23:25.891Z,45.30
2022-07-27T22:25:52.615Z,45.20
2022-07-27T22:28:19.305Z,45.50
2022-07-27T22:31:17.451Z,46.00
2022-07-27T22:33:37.069Z,45.90
2022-07-27T22:36:06.710Z,45.90
2022-07-27T22:38:33.723Z,45.60
2022-07-27T22:41:00.414Z,45.40
2022-07-27T22:43:27.115Z,45.50
2022-07-27T22:45:53.868Z,45.40
2022-07-27T22:48:20.696Z,45.50
2022-07-27T22:50:47.860Z,45.60
2022-07-27T22:53:15.821Z,45.40
2022-07-27T22:55:42.518Z,45.20
2022-07-27T22:58:09.313Z,45.20
2022-07-27T23:00:36.059Z,46.10
2022-07-27T23:03:02.824Z,46.80
2022-07-27T23:05:29.859Z,47.00
2022-07-27T23:07:56.609Z,46.80
2022-07-27T23:10:41.858Z,46.50
2022-07-27T23:13:08.673Z,46.70
2022-07-27T23:15:37.360Z,47.00
2022-07-27T23:18:04.703Z,47.20
2022-07-27T23:20:31.603Z,47.70
2022-07-27T23:22:58.506Z,47.70
2022-07-27T23:25:35.169Z,47.70
2022-07-27T23:28:03.741Z,47.80
2022-07-27T23:30:30.441Z,47.70
2022-07-27T23:32:57.204Z,48.00
2022-07-27T23:35:24.337Z,49.40
2022-07-27T23:37:51.057Z,48.20
2022-07-27T23:40:18.465Z,48.20
2022-07-27T23:42:45.182Z,47.60
2022-07-27T23:45:12.487Z,47.20
2022-07-27T23:47:39.784Z,47.10
2022-07-27T23:50:07.586Z,47.00
2022-07-27T23:52:34.355Z,46.90
2022-07-27T23:55:01.770Z,48.60
2022-07-27T23:57:28.819Z,50.30
2022-07-27T23:59:55.523Z,48.90
